createdAt,value
2023-03-19T00:01:24.601Z,43.08
2023-03-19T00:04:28.614Z,42.89
2023-03-19T00:07:31.716Z,42.88
2023-03-19T00:10:38.562Z,43.09
2023-03-19T00:13:41.567Z,43.07
2023-03-19T00:16:44.709Z,43.44
2023-03-19T00:19:47.723Z,43.50
2023-03-19T00:22:50.780Z,43.33
2023-03-19T00:25:54.897Z,43.53
2023-03-19T00:28:58.739Z,43.93
2023-03-19T00:32:02.419Z,44.00
2023-03-19T00:35:06.629Z,44.36
2023-03-19T00:38:09.933Z,44.45
2023-03-19T00:41:13.892Z,44.78
2023-03-19T00:44:18.981Z,45.00
2023-03-19T00:47:22.593Z,45.01
2023-03-19T00:50:26.430Z,45.01
2023-03-19T00:53:29.467Z,44.76
2023-03-19T00:56:32.455Z,45.04
2023-03-19T00:59:35.451Z,45.32
2023-03-19T01:02:38.737Z,45.51
2023-03-19T01:05:42.450Z,45.72
2023-03-19T01:08:45.644Z,45.75
2023-03-19T01:11:48.633Z,45.46
2023-03-19T01:14:51.798Z,45.54
2023-03-19T01:17:54.935Z,45.63
2023-03-19T01:20:58.016Z,45.60
2023-03-19T01:24:01.331Z,45.64
2023-03-19T01:27:05.073Z,45.55
2023-03-19T01:30:10.614Z,45.67
2023-03-19T01:33:31.990Z,45.80
2023-03-19T01:36:38.362Z,46.03
2023-03-19T01:39:43.007Z,46.04
2023-03-19T01:42:57.008Z,46.32
2023-03-19T01:46:31.238Z,46.07
2023-03-19T01:49:56.549Z,46.01
2023-03-19T01:53:01.297Z,46.04
2023-03-19T01:56:34.860Z,46.19
2023-03-19T02:00:02.055Z,46.37
2023-03-19T02:03:20.310Z,46.39
2023-03-19T02:06:31.098Z,46.44
2023-03-19T02:09:34.672Z,46.62
2023-03-19T02:12:38.439Z,46.62
2023-03-19T02:15:42.143Z,46.58
2023-03-19T02:18:45.428Z,46.61
2023-03-19T02:21:49.190Z,46.92
2023-03-19T02:25:06.685Z,46.79
2023-03-19T02:28:11.332Z,46.95
2023-03-19T02:31:16.347Z,47.18
2023-03-19T02:34:19.440Z,47.31
2023-03-19T02:37:32.891Z,47.49
2023-03-19T02:40:41.299Z,47.44
2023-03-19T02:43:44.361Z,47.45
2023-03-19T02:46:47.495Z,47.45
2023-03-19T02:49:50.576Z,47.38
2023-03-19T02:52:54.060Z,47.47
2023-03-19T02:55:57.960Z,47.59
2023-03-19T02:59:01.410Z,47.48
2023-03-19T03:02:05.979Z,47.70
2023-03-19T03:05:09.360Z,47.70
2023-03-19T03:08:13.378Z,47.70
2023-03-19T03:11:16.336Z,47.89
2023-03-19T03:14:19.451Z,47.99
2023-03-19T03:17:22.711Z,48.02
2023-03-19T03:20:26.009Z,48.12
2023-03-19T03:23:29.125Z,48.17
2023-03-19T03:26:32.501Z,48.30
2023-03-19T03:29:35.605Z,48.19
2023-03-19T03:32:39.945Z,48.32
2023-03-19T03:35:43.241Z,48.30
2023-03-19T03:38:46.282Z,48.43
2023-03-19T03:41:49.590Z,48.55
2023-03-19T03:44:53.075Z,48.62
2023-03-19T03:47:56.377Z,48.79
2023-03-19T03:50:59.488Z,48.92
2023-03-19T03:54:03.964Z,48.90
2023-03-19T03:57:08.113Z,48.95
2023-03-19T04:00:12.614Z,49.05
2023-03-19T04:03:20.020Z,49.17
2023-03-19T04:06:25.064Z,49.23
2023-03-19T04:09:49.313Z,49.20
2023-03-19T04:12:53.755Z,49.22
2023-03-19T04:15:56.825Z,49.44
2023-03-19T04:19:00.245Z,49.65
2023-03-19T04:22:03.664Z,49.70
2023-03-19T04:25:08.428Z,49.74
2023-03-19T04:28:11.849Z,49.86
2023-03-19T04:31:15.509Z,50.03
2023-03-19T04:34:20.027Z,50.11
2023-03-19T04:37:23.089Z,50.24
2023-03-19T04:40:26.681Z,50.37
2023-03-19T04:43:30.182Z,50.47
2023-03-19T04:46:34.200Z,50.57
2023-03-19T04:49:38.225Z,50.70
2023-03-19T04:52:41.747Z,50.87
2023-03-19T04:55:44.777Z,50.96
2023-03-19T04:58:53.714Z,50.95
2023-03-19T05:01:57.075Z,51.20
2023-03-19T05:05:01.282Z,51.19
2023-03-19T05:08:04.639Z,51.27
2023-03-19T05:11:08.061Z,51.37
2023-03-19T05:14:22.169Z,51.46
2023-03-19T05:17:43.600Z,51.45
2023-03-19T05:20:51.087Z,51.61
2023-03-19T05:23:57.268Z,51.68
2023-03-19T05:27:01.104Z,51.76
2023-03-19T05:30:13.248Z,51.82
2023-03-19T05:33:28.492Z,51.83
2023-03-19T05:36:31.535Z,51.89
2023-03-19T05:39:41.829Z,52.06
2023-03-19T05:42:45.668Z,52.20
2023-03-19T05:45:53.009Z,51.97
2023-03-19T05:48:59.004Z,51.89
2023-03-19T05:52:02.211Z,51.67
2023-03-19T05:55:06.879Z,51.51
2023-03-19T05:58:19.969Z,51.46
2023-03-19T06:01:23.361Z,51.34
2023-03-19T06:04:27.586Z,51.24
2023-03-19T06:07:30.872Z,51.18
2023-03-19T06:10:37.283Z,51.14
2023-03-19T06:13:43.880Z,51.04
2023-03-19T06:16:51.518Z,51.02
2023-03-19T06:19:55.215Z,51.10
2023-03-19T06:22:58.328Z,51.09
2023-03-19T06:26:01.435Z,51.14
2023-03-19T06:29:07.711Z,51.14
2023-03-19T06:32:10.969Z,51.17
2023-03-19T06:35:17.558Z,51.18
2023-03-19T06:38:23.769Z,51.53
2023-03-19T06:41:27.393Z,51.67
2023-03-19T06:44:34.220Z,51.60
2023-03-19T06:47:37.328Z,51.55
2023-03-19T06:50:40.536Z,51.58
2023-03-19T06:53:43.602Z,51.55
2023-03-19T06:56:47.083Z,51.58
2023-03-19T06:59:57.815Z,51.47
2023-03-19T07:03:00.849Z,51.40
2023-03-19T07:06:04.049Z,51.29
2023-03-19T07:09:07.160Z,51.08
2023-03-19T07:12:10.546Z,50.91
2023-03-19T07:15:13.825Z,50.82
2023-03-19T07:18:16.798Z,50.70
2023-03-19T07:21:19.809Z,50.49
2023-03-19T07:24:22.847Z,50.40
2023-03-19T07:27:25.880Z,50.40
2023-03-19T07:30:28.938Z,50.34
2023-03-19T07:33:31.901Z,50.36
2023-03-19T07:36:34.931Z,50.33
2023-03-19T07:39:37.944Z,50.32
2023-03-19T07:42:41.611Z,50.25
2023-03-19T07:45:45.617Z,50.24
2023-03-19T07:48:48.580Z,50.24
2023-03-19T07:51:51.821Z,50.07
2023-03-19T07:54:54.910Z,49.96
2023-03-19T07:57:57.935Z,49.82
2023-03-19T08:01:01.161Z,49.70
2023-03-19T08:04:04.227Z,49.65
2023-03-19T08:07:08.712Z,49.42
2023-03-19T08:10:18.710Z,49.31
2023-03-19T08:13:25.446Z,49.24
2023-03-19T08:16:28.665Z,49.16
2023-03-19T08:19:32.481Z,48.95
2023-03-19T08:22:36.838Z,48.69
2023-03-19T08:25:39.916Z,48.54
2023-03-19T08:28:42.885Z,48.44
2023-03-19T08:31:46.402Z,48.53
2023-03-19T08:34:49.863Z,48.50
2023-03-19T08:37:53.708Z,48.31
2023-03-19T08:41:02.160Z,48.25
2023-03-19T08:44:05.248Z,48.16
2023-03-19T08:47:08.538Z,47.99
2023-03-19T08:50:12.244Z,47.44
2023-03-19T08:53:15.551Z,47.21
2023-03-19T08:56:18.886Z,46.83
2023-03-19T08:59:22.015Z,46.66
2023-03-19T09:02:27.486Z,46.68
2023-03-19T09:05:30.576Z,46.23
2023-03-19T09:08:46.842Z,45.64
2023-03-19T09:11:50.384Z,45.11
2023-03-19T09:14:56.464Z,44.61
2023-03-19T09:17:59.561Z,44.44
2023-03-19T09:21:03.294Z,44.12
2023-03-19T09:24:09.729Z,43.68
2023-03-19T09:27:12.835Z,43.59
2023-03-19T09:30:16.084Z,43.35
2023-03-19T09:33:20.788Z,43.20
2023-03-19T09:39:42.688Z,42.95
2023-03-19T09:43:19.653Z,42.81
2023-03-19T09:47:11.265Z,42.68
2023-03-19T09:50:20.577Z,42.48
2023-03-19T09:53:41.958Z,42.01
2023-03-19T09:56:48.152Z,41.59
2023-03-19T09:59:53.214Z,41.31
2023-03-19T10:03:12.476Z,41.22
2023-03-19T10:06:33.851Z,41.09
2023-03-19T10:10:08.930Z,40.91
2023-03-19T10:13:39.632Z,40.60
2023-03-19T10:16:46.778Z,40.64
2023-03-19T10:20:03.122Z,40.50
2023-03-19T10:23:08.558Z,40.48
2023-03-19T10:26:17.743Z,40.49
2023-03-19T10:29:23.597Z,40.58
2023-03-19T10:32:33.984Z,40.70
2023-03-19T10:35:44.445Z,40.81
2023-03-19T10:38:47.534Z,40.61
2023-03-19T10:42:08.486Z,41.06
2023-03-19T10:45:35.424Z,40.78
2023-03-19T10:48:44.535Z,40.54
2023-03-19T10:51:48.949Z,40.32
2023-03-19T10:54:57.146Z,40.16
2023-03-19T10:58:16.741Z,39.60
2023-03-19T11:01:19.733Z,39.66
2023-03-19T11:04:24.318Z,39.61
2023-03-19T11:07:37.093Z,39.33
2023-03-19T11:10:47.074Z,38.94
2023-03-19T11:13:50.226Z,38.63
2023-03-19T11:17:21.994Z,38.15
2023-03-19T11:20:34.053Z,37.93
2023-03-19T11:23:43.376Z,37.56
2023-03-19T11:26:56.048Z,45.66
2023-03-19T11:29:59.198Z,40.11
2023-03-19T11:33:08.258Z,38.73
2023-03-19T11:44:26.203Z,37.62
2023-03-19T11:48:13.041Z,37.05
2023-03-19T11:55:23.097Z,36.55
2023-03-19T11:58:52.108Z,36.95
2023-03-19T12:02:34.084Z,36.45
2023-03-19T12:06:11.817Z,36.17
2023-03-19T12:09:47.637Z,36.12
2023-03-19T12:13:24.236Z,36.02
2023-03-19T12:17:19.276Z,35.45
2023-03-19T12:20:35.841Z,35.40
2023-03-19T12:24:17.189Z,35.14
2023-03-19T12:27:23.030Z,34.91
2023-03-19T12:30:45.374Z,35.15
2023-03-19T12:33:54.527Z,35.15
2023-03-19T12:37:27.264Z,34.74
2023-03-19T12:40:34.469Z,34.91
2023-03-19T12:44:09.183Z,34.69
2023-03-19T12:51:05.717Z,35.33
2023-03-19T12:54:17.622Z,35.36
2023-03-19T13:01:01.366Z,34.88
2023-03-19T13:04:32.834Z,34.75
2023-03-19T13:08:03.317Z,35.05
2023-03-19T13:21:46.817Z,35.54
2023-03-19T13:24:59.376Z,40.17
2023-03-19T13:28:01.180Z,37.35
2023-03-19T13:31:07.001Z,36.83
2023-03-19T13:34:29.843Z,36.57
2023-03-19T13:38:12.375Z,36.50
2023-03-19T13:41:32.967Z,36.99
2023-03-19T13:45:27.792Z,36.71
2023-03-19T13:48:45.173Z,36.46
2023-03-19T13:51:48.527Z,36.38
2023-03-19T13:54:57.217Z,36.29
2023-03-19T13:58:37.261Z,36.35
2023-03-19T14:01:44.818Z,36.34
2023-03-19T14:09:04.127Z,36.62
2023-03-19T14:12:47.100Z,37.14
2023-03-19T14:16:36.836Z,36.93
2023-03-19T14:19:42.328Z,36.87
2023-03-19T14:23:15.238Z,37.02
2023-03-19T14:26:24.609Z,37.12
2023-03-19T14:29:29.368Z,36.96
2023-03-19T14:32:40.152Z,37.15
2023-03-19T14:35:46.058Z,37.01
2023-03-19T14:38:55.096Z,36.95
2023-03-19T14:42:24.976Z,36.81
2023-03-19T14:45:42.836Z,36.94
2023-03-19T14:49:18.173Z,37.11
2023-03-19T14:52:36.055Z,37.34
2023-03-19T14:55:38.101Z,37.35
2023-03-19T14:58:56.298Z,37.50
2023-03-19T15:01:58.014Z,37.52
2023-03-19T15:05:02.079Z,37.67
2023-03-19T15:08:10.897Z,37.86
2023-03-19T15:12:08.774Z,38.25
2023-03-19T15:15:22.608Z,38.12
2023-03-19T15:18:26.384Z,38.06
2023-03-19T15:21:31.248Z,38.05
2023-03-19T15:24:34.034Z,38.06
2023-03-19T15:27:36.322Z,38.17
2023-03-19T15:30:52.339Z,38.16
2023-03-19T15:33:59.240Z,38.21
2023-03-19T15:37:04.989Z,38.24
2023-03-19T15:40:11.091Z,38.42
2023-03-19T15:43:13.399Z,38.63
2023-03-19T15:46:23.035Z,38.60
2023-03-19T15:49:31.217Z,38.61
2023-03-19T15:52:37.785Z,38.77
2023-03-19T15:55:39.972Z,38.72
2023-03-19T15:58:44.421Z,38.67
2023-03-19T16:01:46.610Z,38.69
2023-03-19T16:05:18.315Z,38.93
2023-03-19T16:08:19.259Z,38.96
2023-03-19T16:11:44.537Z,38.81
2023-03-19T16:14:46.372Z,39.03
2023-03-19T16:17:51.299Z,40.47
2023-03-19T16:21:00.476Z,39.75
2023-03-19T16:24:02.703Z,39.98
2023-03-19T16:27:10.924Z,41.02
2023-03-19T16:30:21.907Z,41.14
2023-03-19T16:33:26.465Z,41.59
2023-03-19T16:36:31.303Z,42.12
2023-03-19T16:39:36.365Z,42.58
2023-03-19T16:42:38.628Z,42.73
2023-03-19T16:46:13.437Z,42.82
2023-03-19T16:49:15.464Z,42.49
2023-03-19T16:52:22.937Z,43.08
2023-03-19T16:55:33.677Z,43.18
2023-03-19T16:58:41.627Z,43.45
2023-03-19T17:01:43.363Z,43.45
2023-03-19T17:04:45.520Z,43.89
2023-03-19T17:07:48.312Z,43.82
2023-03-19T17:10:52.838Z,44.04
2023-03-19T17:13:58.421Z,44.06
2023-03-19T17:17:00.535Z,44.49
2023-03-19T17:20:02.359Z,44.85
2023-03-19T17:23:13.211Z,44.95
2023-03-19T17:26:21.332Z,44.97
2023-03-19T17:29:24.822Z,45.21
2023-03-19T17:32:28.304Z,45.47
2023-03-19T17:35:33.650Z,45.58
2023-03-19T17:38:35.425Z,45.75
2023-03-19T17:41:37.278Z,45.91
2023-03-19T17:44:45.241Z,46.19
2023-03-19T17:47:55.651Z,46.22
2023-03-19T17:51:01.312Z,46.40
2023-03-19T17:54:03.183Z,46.62
2023-03-19T17:57:04.938Z,46.72
2023-03-19T18:00:07.127Z,46.82
2023-03-19T18:03:17.065Z,46.91
2023-03-19T18:06:21.830Z,47.14
2023-03-19T18:09:32.168Z,47.17
2023-03-19T18:12:33.918Z,47.22
2023-03-19T18:15:37.391Z,47.72
2023-03-19T18:18:39.065Z,47.76
2023-03-19T18:21:40.771Z,47.76
2023-03-19T18:24:43.815Z,47.68
2023-03-19T18:27:46.299Z,47.84
2023-03-19T18:30:48.025Z,47.96
2023-03-19T18:33:54.687Z,48.19
2023-03-19T18:36:57.220Z,48.36
2023-03-19T18:39:58.825Z,48.36
2023-03-19T18:43:01.269Z,47.95
2023-03-19T18:46:03.053Z,48.33
2023-03-19T18:49:15.940Z,48.58
2023-03-19T18:52:19.577Z,48.71
2023-03-19T18:55:27.341Z,48.85
2023-03-19T18:58:29.387Z,49.01
2023-03-19T19:01:31.225Z,49.15
2023-03-19T19:04:33.041Z,49.24
2023-03-19T19:07:34.886Z,49.48
2023-03-19T19:10:37.487Z,49.72
2023-03-19T19:13:55.156Z,50.31
2023-03-19T19:16:57.442Z,50.07
2023-03-19T19:20:26.824Z,50.11
2023-03-19T19:23:30.678Z,50.03
2023-03-19T19:26:39.352Z,50.17
2023-03-19T19:29:41.483Z,50.28
2023-03-19T19:32:57.745Z,50.37
2023-03-19T19:36:00.566Z,50.36
2023-03-19T19:39:02.488Z,50.67
2023-03-19T19:42:41.079Z,50.80
2023-03-19T19:45:46.109Z,50.67
2023-03-19T19:48:47.857Z,50.90
2023-03-19T19:51:50.374Z,51.08
2023-03-19T19:54:52.147Z,51.24
2023-03-19T19:57:56.343Z,51.29
2023-03-19T20:01:03.707Z,51.38
2023-03-19T20:04:06.247Z,51.43
2023-03-19T20:07:08.057Z,51.62
2023-03-19T20:10:10.713Z,51.74
2023-03-19T20:13:25.668Z,51.83
2023-03-19T20:16:27.518Z,52.05
2023-03-19T20:19:36.223Z,52.19
2023-03-19T20:22:42.448Z,52.21
2023-03-19T20:37:56.035Z,52.77
2023-03-19T20:41:01.370Z,52.73
2023-03-19T20:44:06.118Z,52.88
2023-03-19T20:47:21.017Z,52.71
2023-03-19T20:50:25.975Z,52.37
2023-03-19T20:53:28.352Z,52.29
2023-03-19T20:56:30.314Z,52.19
2023-03-19T20:59:32.049Z,52.03
2023-03-19T21:07:28.181Z,51.29
2023-03-19T21:10:41.720Z,51.12
2023-03-19T21:13:45.702Z,50.93
2023-03-19T21:16:53.975Z,50.80
2023-03-19T21:20:02.741Z,50.62
2023-03-19T21:23:19.763Z,50.37
2023-03-19T21:29:41.910Z,50.52
2023-03-19T21:32:43.791Z,50.18
2023-03-19T21:35:45.856Z,50.00
2023-03-19T21:38:48.534Z,49.95
2023-03-19T21:41:50.362Z,49.77
2023-03-19T21:44:57.945Z,49.57
2023-03-19T21:48:16.026Z,49.40
2023-03-19T21:51:17.786Z,49.26
2023-03-19T21:54:19.549Z,49.13
2023-03-19T21:57:21.348Z,49.08
2023-03-19T22:00:23.795Z,48.97
2023-03-19T22:03:26.953Z,48.90
2023-03-19T22:06:29.438Z,48.81
2023-03-19T22:09:31.290Z,48.72
2023-03-19T22:12:36.845Z,48.60
2023-03-19T22:15:38.638Z,48.55
2023-03-19T22:18:40.859Z,48.65
2023-03-19T22:21:42.733Z,48.54
2023-03-19T22:24:44.505Z,48.46
2023-03-19T22:27:48.391Z,48.43
2023-03-19T22:30:50.201Z,48.44
2023-03-19T22:33:52.065Z,48.50
2023-03-19T22:36:53.963Z,48.55
2023-03-19T22:39:55.928Z,48.51
2023-03-19T22:42:57.927Z,48.48
2023-03-19T22:46:08.625Z,48.47
2023-03-19T22:49:14.834Z,48.50
2023-03-19T22:52:17.079Z,48.53
2023-03-19T22:55:18.848Z,48.56
2023-03-19T22:58:22.375Z,48.52
2023-03-19T23:01:25.215Z,48.57
2023-03-19T23:04:31.089Z,48.66
2023-03-19T23:07:32.961Z,48.65
2023-03-19T23:10:35.435Z,48.68
2023-03-19T23:13:37.265Z,48.68
2023-03-19T23:16:42.660Z,48.76
2023-03-19T23:19:44.420Z,48.79
2023-03-19T23:22:47.011Z,48.79
2023-03-19T23:25:49.142Z,48.83
2023-03-19T23:28:51.013Z,49.00
2023-03-19T23:31:52.756Z,48.98
2023-03-19T23:35:00.584Z,49.01
2023-03-19T23:38:03.520Z,49.04
2023-03-19T23:41:05.454Z,49.09
2023-03-19T23:44:13.109Z,49.00
2023-03-19T23:47:15.710Z,49.09
2023-03-19T23:50:17.613Z,49.17
2023-03-19T23:53:25.538Z,49.20
2023-03-19T23:56:27.584Z,49.25
2023-03-19T23:59:33.821Z,49.26
